createdAt,value
2018-10-19T00:02:11.817Z,102553.70
2018-10-19T00:06:16.588Z,102551.06
2018-10-19T00:10:20.492Z,102550.53
2018-10-19T00:14:24.531Z,102542.81
2018-10-19T00:18:28.401Z,102537.17
2018-10-19T00:22:32.414Z,102546.30
2018-10-19T00:26:36.266Z,102538.41
2018-10-19T00:30:40.149Z,102544.97
2018-10-19T00:34:44.333Z,102539.72
2018-10-19T00:38:48.264Z,102545.00
2018-10-19T00:42:52.224Z,102535.41
2018-10-19T00:46:56.185Z,102533.71
2018-10-19T00:51:00.063Z,102540.33
2018-10-19T00:55:05.323Z,102521.59
2018-10-19T00:59:09.740Z,102532.09
2018-10-19T01:03:13.738Z,102533.88
2018-10-19T01:07:17.551Z,102524.29
2018-10-19T01:11:21.477Z,102523.45
2018-10-19T01:15:26.864Z,102517.27
2018-10-19T01:19:30.759Z,102518.51
2018-10-19T01:23:34.648Z,102507.09
2018-10-19T01:27:39.583Z,102510.56
2018-10-19T01:31:43.486Z,102512.17
2018-10-19T01:35:47.428Z,102511.44
2018-10-19T01:39:51.366Z,102513.55
2018-10-19T01:43:55.296Z,102509.92
2018-10-19T01:48:00.065Z,102517.45
2018-10-19T01:52:05.510Z,102525.73
2018-10-19T01:56:10.297Z,102520.08
2018-10-19T02:00:15.180Z,102515.70
2018-10-19T02:04:19.113Z,102515.30
2018-10-19T02:13:34.257Z,102519.80
2018-10-19T02:17:38.173Z,102520.73
2018-10-19T02:21:42.058Z,102516.36
2018-10-19T02:25:45.992Z,102518.97
2018-10-19T02:29:49.896Z,102520.97
2018-10-19T02:33:53.948Z,102515.88
2018-10-19T02:37:57.862Z,102518.66
2018-10-19T02:42:01.765Z,102514.41
2018-10-19T02:46:05.705Z,102512.57
2018-10-19T02:50:10.311Z,102524.05
2018-10-19T02:54:14.236Z,102523.24
2018-10-19T02:58:19.071Z,102527.59
2018-10-19T03:02:23.000Z,102525.36
2018-10-19T03:06:26.911Z,102530.60
2018-10-19T03:10:31.193Z,102527.52
2018-10-19T03:14:35.162Z,102523.89
2018-10-19T03:18:39.134Z,102514.33
2018-10-19T03:22:43.100Z,102524.96
2018-10-19T03:26:47.045Z,102514.42
2018-10-19T03:30:51.455Z,102508.33
2018-10-19T03:34:55.453Z,102507.51
2018-10-19T03:38:59.503Z,102510.53
2018-10-19T03:43:03.928Z,102519.77
2018-10-19T03:47:07.850Z,102525.55
2018-10-19T03:51:11.936Z,102521.67
2018-10-19T03:55:15.784Z,102526.98
2018-10-19T03:59:19.726Z,102520.12
2018-10-19T04:03:23.881Z,102518.79
2018-10-19T04:07:27.817Z,102511.41
2018-10-19T04:11:32.213Z,102505.38
2018-10-19T04:15:36.144Z,102505.02
2018-10-19T04:19:40.282Z,102509.89
2018-10-19T04:23:44.261Z,102513.02
2018-10-19T04:27:48.457Z,102513.08
2018-10-19T04:31:52.352Z,102509.61
2018-10-19T04:35:56.663Z,102506.58
2018-10-19T04:40:00.556Z,102510.11
2018-10-19T04:44:05.789Z,102516.33
2018-10-19T04:48:09.677Z,102508.51
2018-10-19T04:52:13.604Z,102510.32
2018-10-19T04:56:17.811Z,102521.21
2018-10-19T05:00:22.077Z,102520.84
2018-10-19T05:04:26.044Z,102519.14
2018-10-19T05:08:29.856Z,102525.69
2018-10-19T05:12:33.779Z,102525.64
2018-10-19T05:16:38.153Z,102527.76
2018-10-19T05:20:42.045Z,102521.77
2018-10-19T05:24:46.233Z,102517.03
2018-10-19T05:28:50.129Z,102525.33
2018-10-19T05:32:54.225Z,102519.14
2018-10-19T05:36:58.075Z,102523.52
2018-10-19T05:41:02.370Z,102526.95
2018-10-19T05:45:08.448Z,102533.84
2018-10-19T05:49:13.213Z,102536.02
2018-10-19T05:53:17.230Z,102528.70
2018-10-19T05:57:21.309Z,102531.33
2018-10-19T06:01:26.135Z,102535.30
2018-10-19T06:05:30.076Z,102528.36
2018-10-19T06:09:34.343Z,102529.75
2018-10-19T06:13:38.275Z,102535.89
2018-10-19T06:17:42.184Z,102537.20
2018-10-19T06:21:46.107Z,102541.53
2018-10-19T06:25:50.845Z,102545.95
2018-10-19T06:29:54.828Z,102544.64
2018-10-19T06:33:58.772Z,102543.73
2018-10-19T06:38:02.818Z,102545.50
2018-10-19T06:42:06.630Z,102543.83
2018-10-19T06:46:10.648Z,102542.92
2018-10-19T06:50:14.684Z,102552.53
2018-10-19T06:54:18.436Z,102546.41
2018-10-19T06:58:22.345Z,102544.72
2018-10-19T07:02:26.315Z,102549.91
2018-10-19T07:06:30.442Z,102554.62
2018-10-19T07:10:34.324Z,102550.64
2018-10-19T07:14:38.200Z,102552.81
2018-10-19T07:18:42.131Z,102552.17
2018-10-19T07:22:46.110Z,102559.03
2018-10-19T07:26:50.038Z,102557.27
2018-10-19T07:30:53.942Z,102557.01
2018-10-19T07:34:57.819Z,102556.86
2018-10-19T07:39:01.702Z,102565.02
2018-10-19T07:43:05.973Z,102556.75
2018-10-19T07:47:10.109Z,102556.47
2018-10-19T07:51:13.976Z,102562.77
2018-10-19T07:55:17.944Z,102554.90
2018-10-19T07:59:21.983Z,102557.70
2018-10-19T08:03:25.904Z,102561.21
2018-10-19T08:07:30.633Z,102559.55
2018-10-19T08:11:34.638Z,102566.72
2018-10-19T08:15:38.436Z,102563.33
2018-10-19T08:19:42.362Z,102554.92
2018-10-19T08:23:46.288Z,102559.98
2018-10-19T08:27:50.213Z,102560.34
2018-10-19T08:31:54.135Z,102562.13
2018-10-19T08:35:58.196Z,102561.59
2018-10-19T08:40:03.736Z,102560.28
2018-10-19T08:44:07.650Z,102559.27
2018-10-19T08:48:11.539Z,102562.70
2018-10-19T08:52:15.469Z,102559.74
2018-10-19T08:56:19.919Z,102572.79
2018-10-19T09:00:23.804Z,102576.11
2018-10-19T09:04:27.690Z,102578.25
2018-10-19T09:08:31.598Z,102573.65
2018-10-19T09:12:35.603Z,102569.09
2018-10-19T09:16:39.500Z,102566.98
2018-10-19T09:20:43.425Z,102561.92
2018-10-19T09:24:47.724Z,102559.18
2018-10-19T09:28:51.678Z,102556.41
2018-10-19T09:32:55.664Z,102553.63
2018-10-19T09:36:59.626Z,102546.19
2018-10-19T09:41:03.457Z,102547.92
2018-10-19T09:45:08.848Z,102550.20
2018-10-19T09:49:14.302Z,102541.36
2018-10-19T09:53:18.285Z,102538.67
2018-10-19T09:57:22.173Z,102539.34
2018-10-19T10:01:28.625Z,102531.84
2018-10-19T10:05:33.080Z,102533.70
2018-10-19T10:09:36.964Z,102528.04
2018-10-19T10:13:40.880Z,102528.83
2018-10-19T10:17:44.807Z,102535.23
2018-10-19T10:21:48.684Z,102540.30
2018-10-19T10:25:53.125Z,102530.03
2018-10-19T10:29:57.105Z,102522.36
2018-10-19T10:34:01.089Z,102521.60
2018-10-19T10:38:05.708Z,102510.63
2018-10-19T10:42:09.603Z,102515.86
2018-10-19T10:46:13.837Z,102508.66
2018-10-19T10:50:17.732Z,102508.35
2018-10-19T10:54:21.742Z,102518.53
2018-10-19T10:58:25.630Z,102506.23
2018-10-19T11:02:29.529Z,102504.05
2018-10-19T11:06:33.438Z,102502.86
2018-10-19T11:10:37.408Z,102487.75
2018-10-19T11:14:41.660Z,102489.56
2018-10-19T11:18:45.561Z,102505.55
2018-10-19T11:22:51.472Z,102501.22
2018-10-19T11:26:55.359Z,102490.50
2018-10-19T11:30:59.480Z,102496.53
2018-10-19T11:35:03.615Z,102492.29
2018-10-19T11:39:08.274Z,102487.66
2018-10-19T11:43:12.276Z,102486.75
2018-10-19T11:47:16.215Z,102477.32
2018-10-19T11:51:20.335Z,102479.04
2018-10-19T11:55:24.371Z,102473.67
2018-10-19T11:59:28.272Z,102472.19
2018-10-19T12:03:32.247Z,102462.87
2018-10-19T12:07:36.388Z,102469.16
2018-10-19T12:11:40.345Z,102464.41
2018-10-19T12:15:44.230Z,102462.30
2018-10-19T12:19:48.140Z,102458.27
2018-10-19T12:23:52.009Z,102447.66
2018-10-19T12:27:56.314Z,102445.61
2018-10-19T12:32:00.152Z,102441.11
2018-10-19T12:36:05.388Z,102434.85
2018-10-19T12:40:10.386Z,102429.77
2018-10-19T12:44:15.053Z,102422.03
2018-10-19T12:48:19.170Z,102427.03
2018-10-19T12:52:23.077Z,102418.72
2018-10-19T12:56:26.920Z,102416.72
2018-10-19T13:00:30.785Z,102429.03
2018-10-19T13:04:34.657Z,102424.30
2018-10-19T13:08:38.677Z,102424.16
2018-10-19T13:12:42.752Z,102413.81
2018-10-19T13:16:46.782Z,102420.84
2018-10-19T13:20:50.676Z,102420.33
2018-10-19T13:24:54.608Z,102412.90
2018-10-19T13:28:58.507Z,102420.45
2018-10-19T13:33:02.741Z,102410.65
2018-10-19T13:37:07.008Z,102412.06
2018-10-19T13:41:10.960Z,102408.95
2018-10-19T13:45:15.075Z,102401.91
2018-10-19T13:49:18.960Z,102395.69
2018-10-19T13:53:22.884Z,102386.41
2018-10-19T13:57:27.044Z,102387.54
2018-10-19T14:01:32.458Z,102382.89
2018-10-19T14:05:38.566Z,102375.49
2018-10-19T14:09:42.268Z,102371.91
2018-10-19T14:13:46.268Z,102376.35
2018-10-19T14:17:50.358Z,102380.15
2018-10-19T14:21:54.363Z,102377.27
2018-10-19T14:25:58.335Z,102376.39
2018-10-19T14:30:02.275Z,102379.09
2018-10-19T14:34:06.450Z,102382.20
2018-10-19T14:38:10.397Z,102382.83
2018-10-19T14:42:14.542Z,102376.75
2018-10-19T14:46:18.438Z,102381.00
2018-10-19T14:50:22.712Z,102389.91
2018-10-19T14:54:26.709Z,102387.17
2018-10-19T14:58:30.809Z,102388.40
2018-10-19T15:02:34.719Z,102394.80
2018-10-19T15:06:39.117Z,102402.70
2018-10-19T15:10:43.372Z,102403.10
2018-10-19T15:14:47.062Z,102392.64
2018-10-19T15:18:50.949Z,102406.58
2018-10-19T15:22:54.879Z,102411.23
2018-10-19T15:26:58.886Z,102419.85
2018-10-19T15:31:02.729Z,102423.41
2018-10-19T15:35:07.191Z,102426.84
2018-10-19T15:39:11.802Z,102415.84
2018-10-19T15:43:15.704Z,102414.94
2018-10-19T15:47:20.352Z,102416.41
2018-10-19T15:51:24.281Z,102417.92
2018-10-19T15:55:28.210Z,102414.66
2018-10-19T15:59:32.076Z,102401.23
2018-10-19T16:03:35.988Z,102402.28
2018-10-19T16:07:39.882Z,102419.45
2018-10-19T16:11:44.340Z,102421.12
2018-10-19T16:15:48.211Z,102423.28
2018-10-19T16:19:52.117Z,102426.52
2018-10-19T16:23:56.276Z,102434.56
2018-10-19T16:28:00.344Z,102435.62
2018-10-19T16:32:05.613Z,102434.73
2018-10-19T16:36:09.659Z,102455.44
2018-10-19T16:40:13.468Z,102465.09
2018-10-19T16:44:17.910Z,102476.75
2018-10-19T16:48:22.481Z,102491.37
2018-10-19T16:52:26.628Z,102499.56
2018-10-19T16:56:30.379Z,102506.25
2018-10-19T17:00:34.901Z,102517.39
2018-10-19T17:04:38.853Z,102516.66
2018-10-19T17:08:43.054Z,102522.67
2018-10-19T17:12:47.048Z,102528.66
2018-10-19T17:16:50.951Z,102530.66
2018-10-19T17:20:55.650Z,102538.67
2018-10-19T17:24:59.635Z,102550.39
2018-10-19T17:29:03.799Z,102544.42
2018-10-19T17:33:07.717Z,102542.36
2018-10-19T17:37:12.226Z,102539.88
2018-10-19T17:41:16.299Z,102550.61
2018-10-19T17:45:20.069Z,102568.59
2018-10-19T17:49:23.965Z,102568.27
2018-10-19T17:53:28.074Z,102532.19
2018-10-19T17:57:32.018Z,102541.38
2018-10-19T18:01:35.907Z,102541.50
2018-10-19T18:05:40.427Z,102548.30
2018-10-19T18:09:44.320Z,102564.30
2018-10-19T18:13:48.291Z,102556.30
2018-10-19T18:17:52.248Z,102575.37
2018-10-19T18:21:56.561Z,102587.95
2018-10-19T18:26:00.216Z,102598.25
2018-10-19T18:30:06.125Z,102611.72
2018-10-19T18:34:10.254Z,102612.84
2018-10-19T18:38:14.190Z,102619.84
2018-10-19T18:42:18.096Z,102612.78
2018-10-19T18:46:22.257Z,102611.89
2018-10-19T18:50:26.283Z,102619.84
2018-10-19T18:54:30.931Z,102615.02
2018-10-19T18:58:35.005Z,102609.09
2018-10-19T19:02:38.980Z,102608.92
2018-10-19T19:06:42.933Z,102623.94
2018-10-19T19:10:46.892Z,102619.92
2018-10-19T19:14:50.869Z,102626.21
2018-10-19T19:18:54.832Z,102630.89
2018-10-19T19:22:58.778Z,102637.48
2018-10-19T19:27:02.840Z,102640.05
2018-10-19T19:31:06.712Z,102645.05
2018-10-19T19:35:10.764Z,102648.42
2018-10-19T19:39:14.725Z,102648.41
2018-10-19T19:43:18.619Z,102648.52
2018-10-19T19:47:28.053Z,102643.37
2018-10-19T19:51:31.968Z,102652.80
2018-10-19T19:55:35.876Z,102658.46
2018-10-19T19:59:40.287Z,102664.36
2018-10-19T20:03:44.508Z,102673.09
2018-10-19T20:07:48.382Z,102672.34
2018-10-19T20:11:52.364Z,102675.91
2018-10-19T20:15:56.298Z,102690.26
2018-10-19T20:20:00.243Z,102698.70
2018-10-19T20:24:04.114Z,102697.23
2018-10-19T20:28:08.360Z,102705.96
2018-10-19T20:32:12.440Z,102696.44
2018-10-19T20:36:16.210Z,102711.33
2018-10-19T20:40:20.201Z,102716.55
2018-10-19T20:44:24.105Z,102706.12
2018-10-19T20:48:28.333Z,102706.31
2018-10-19T20:52:32.273Z,102712.21
2018-10-19T20:56:36.168Z,102711.73
2018-10-19T21:00:40.096Z,102709.22
2018-10-19T21:04:44.017Z,102703.49
2018-10-19T21:08:47.968Z,102708.30
2018-10-19T21:12:52.189Z,102710.45
2018-10-19T21:16:56.124Z,102700.97
2018-10-19T21:20:59.960Z,102701.11
2018-10-19T21:25:03.982Z,102700.81
2018-10-19T21:29:07.979Z,102704.66
2018-10-19T21:33:12.049Z,102722.16
2018-10-19T21:37:15.963Z,102718.33
2018-10-19T21:41:19.945Z,102729.53
2018-10-19T21:45:23.832Z,102728.70
2018-10-19T21:49:27.832Z,102733.08
2018-10-19T21:53:31.812Z,102735.71
2018-10-19T21:57:35.760Z,102731.41
2018-10-19T22:01:39.640Z,102724.71
2018-10-19T22:05:43.856Z,102723.27
2018-10-19T22:09:47.764Z,102729.40
2018-10-19T22:13:51.764Z,102727.75
2018-10-19T22:17:56.172Z,102734.15
2018-10-19T22:26:03.025Z,102743.33
2018-10-19T22:30:07.370Z,102740.21
2018-10-19T22:34:11.639Z,102744.58
2018-10-19T22:38:15.596Z,102740.70
2018-10-19T22:42:19.544Z,102744.05
2018-10-19T22:46:23.536Z,102735.32
2018-10-19T22:50:27.715Z,102731.05
2018-10-19T22:54:31.708Z,102738.47
2018-10-19T22:58:35.704Z,102735.41
2018-10-19T23:02:39.653Z,102733.25
2018-10-19T23:06:43.610Z,102728.52
2018-10-19T23:10:47.564Z,102724.20
2018-10-19T23:14:51.684Z,102726.52
2018-10-19T23:18:55.579Z,102717.83
2018-10-19T23:22:59.555Z,102722.64
2018-10-19T23:27:04.617Z,102730.58
2018-10-19T23:31:08.842Z,102741.16
2018-10-19T23:35:12.740Z,102753.54
2018-10-19T23:39:16.668Z,102757.13
2018-10-19T23:43:20.617Z,102771.22
2018-10-19T23:47:24.737Z,102763.45
2018-10-19T23:51:28.673Z,102769.21
2018-10-19T23:55:32.567Z,102790.20
2018-10-19T23:59:36.630Z,102787.29
